Time;durP1;ratioP1;P1;durP2;ratioP2;P2;SDS_P1;SDS_P2;PMS_P1;PMS_P2;Temp;Humidity;BMP_temperature;BMP_pressure;BME280_temperature;BME280_humidity;BME280_pressure;Samples;Min_cycle;Max_cycle;Signal;HPM_P1;HPM_P2
2021/05/06 00:38:01;;;;;;;2.90;1.93;;;;;;;3.79;68.97;98433.63;512344;1104;115981;-60
2021/05/06 01:09:06;;;;;;;2.37;1.37;;;;;;;3.60;68.61;98445.00;512299;1100;115868;-61
2021/05/06 01:19:11;;;;;;;3.53;1.00;;;;;;;3.49;68.55;98460.31;512684;1104;116081;-59
2021/05/06 01:29:20;;;;;;;3.00;1.40;;;;;;;3.45;68.87;98472.60;512712;1100;116342;-60
2021/05/06 01:39:47;;;;;;;1.90;1.13;;;;;;;3.30;69.13;98458.70;513208;1104;116502;-60
2021/05/06 02:00:23;;;;;;;2.87;1.43;;;;;;;3.24;69.74;98469.38;513679;1099;115247;-59
2021/05/06 02:10:28;;;;;;;2.47;1.20;;;;;;;3.15;70.14;98475.05;512313;1104;116127;-60
2021/05/06 02:20:33;;;;;;;2.50;1.45;;;;;;;3.12;70.32;98480.40;513346;1104;115917;-60
2021/05/06 02:30:38;;;;;;;2.27;1.00;;;;;;;3.03;70.32;98499.87;512936;1104;115906;-60
2021/05/06 02:40:42;;;;;;;2.47;1.70;;;;;;;3.08;70.77;98516.02;513687;1100;115471;-56
2021/05/06 02:50:52;;;;;;;2.07;1.10;;;;;;;2.94;70.92;98532.27;513229;1104;115108;-56
2021/05/06 03:11:32;;;;;;;4.53;1.60;;;;;;;2.87;70.98;98552.48;512398;1099;116414;-54
2021/05/06 03:32:21;;;;;;;2.27;1.63;;;;;;;2.92;70.73;98579.04;512516;1104;115967;-58
2021/05/06 03:42:29;;;;;;;3.93;1.70;;;;;;;3.06;70.88;98587.89;513592;1104;116257;-53
2021/05/06 04:14:19;;;;;;;4.80;2.37;;;;;;;4.46;69.46;98641.33;512173;1100;115853;-60
2021/05/06 04:55:23;;;;;;;3.93;1.90;;;;;;;9.55;65.61;98652.59;512746;1104;115692;-60
2021/05/06 05:05:30;;;;;;;3.65;1.65;;;;;;;19.49;54.25;98652.28;513187;1104;115279;-61
2021/05/06 05:26:02;;;;;;;1.75;1.50;;;;;;;24.45;39.86;98659.55;513352;1104;116258;-60
2021/05/06 05:36:12;;;;;;;2.30;1.53;;;;;;;28.22;35.61;98657.35;512721;1104;115711;-58
2021/05/06 05:56:56;;;;;;;6.63;1.75;;;;;;;31.89;28.76;98670.88;514136;1099;116047;-59
2021/05/06 06:07:08;;;;;;;4.20;1.50;;;;;;;31.95;25.26;98656.24;513370;1104;116755;-60
2021/05/06 06:17:12;;;;;;;2.65;2.18;;;;;;;32.69;23.18;98655.51;516655;1104;116088;-59
2021/05/06 06:27:20;;;;;;;7.60;2.18;;;;;;;32.15;21.72;98654.73;512347;1104;116531;-61
2021/05/06 06:37:26;;;;;;;6.73;2.13;;;;;;;31.77;22.31;98678.37;512454;1098;116559;-60
2021/05/06 06:47:32;;;;;;;4.30;1.90;;;;;;;32.43;19.59;98658.95;512677;1100;116361;-60
2021/05/06 06:57:37;;;;;;;3.55;1.75;;;;;;;33.08;20.18;98674.09;513850;1104;116324;-58
2021/05/06 07:07:41;;;;;;;4.88;1.80;;;;;;;33.20;19.23;98678.45;512799;1104;115556;-60
2021/05/06 07:17:46;;;;;;;6.63;1.93;;;;;;;31.89;18.59;98700.73;512513;1100;116204;-59
2021/05/06 07:27:52;;;;;;;3.60;2.10;;;;;;;32.38;19.04;98693.42;512347;1100;116870;-63
2021/05/06 07:38:09;;;;;;;2.10;1.35;;;;;;;31.98;18.44;98696.45;513081;1104;116696;-58
2021/05/06 07:48:18;;;;;;;7.10;2.00;;;;;;;34.36;17.43;98708.84;512155;1104;116162;-59
2021/05/06 07:58:27;;;;;;;8.18;3.30;;;;;;;34.37;16.62;98692.23;512566;1100;116685;-65
2021/05/06 08:08:31;;;;;;;3.47;1.63;;;;;;;26.69;18.00;98697.16;513325;1104;116608;-61
2021/05/06 08:18:36;;;;;;;4.97;1.77;;;;;;;19.39;22.22;98724.41;513203;1104;116188;-61
2021/05/06 08:28:41;;;;;;;2.00;1.83;;;;;;;16.17;25.71;98734.80;512519;1104;115797;-60
2021/05/06 08:38:46;;;;;;;3.30;1.97;;;;;;;15.46;27.48;98723.30;513011;1100;115386;-61
2021/05/06 08:48:51;;;;;;;3.50;1.83;;;;;;;14.57;28.86;98737.83;512108;1100;115945;-62
2021/05/06 08:58:56;;;;;;;4.35;1.90;;;;;;;14.39;29.58;98742.22;512987;1099;116525;-61
2021/05/06 09:09:03;;;;;;;2.40;1.33;;;;;;;13.66;29.62;98733.84;513384;1104;115591;-60
2021/05/06 09:19:10;;;;;;;2.00;1.68;;;;;;;13.22;31.28;98733.40;511505;1104;117864;-60
2021/05/06 09:29:31;;;;;;;4.67;3.13;;;;;;;14.19;30.81;98736.98;513057;1104;115838;-60
2021/05/06 09:39:37;;;;;;;10.00;3.10;;;;;;;13.73;30.80;98739.39;513072;1100;116334;-60
2021/05/06 09:49:41;;;;;;;4.20;2.13;;;;;;;13.34;31.37;98745.48;495447;1104;20002054;-61
2021/05/06 09:59:46;;;;;;;2.55;1.40;;;;;;;13.30;32.29;98739.65;511900;1104;116122;-60
2021/05/06 10:09:56;;;;;;;3.75;2.30;;;;;;;13.24;32.50;98739.37;512180;1100;115856;-60
2021/05/06 10:20:01;;;;;;;3.87;2.30;;;;;;;13.42;33.21;98744.80;512395;1104;116195;-60
2021/05/06 10:30:08;;;;;;;5.07;2.63;;;;;;;13.09;33.66;98717.83;512956;1098;115996;-60
2021/05/06 10:40:31;;;;;;;4.35;2.90;;;;;;;13.03;34.83;98724.48;512539;1099;115722;-61
2021/05/06 10:50:39;;;;;;;2.60;2.40;;;;;;;12.93;34.48;98713.92;513302;1104;115906;-62
2021/05/06 11:00:44;;;;;;;5.10;2.23;;;;;;;13.49;34.93;98718.73;512379;1104;115847;-62
2021/05/06 11:11:17;;;;;;;4.73;2.73;;;;;;;12.74;35.50;98715.53;514012;1104;116130;-61
2021/05/06 11:21:41;;;;;;;3.20;1.60;;;;;;;12.88;35.18;98731.92;512565;1104;115801;-62
2021/05/06 11:31:50;;;;;;;2.13;1.93;;;;;;;11.88;38.70;98745.53;512964;1104;116658;-62
2021/05/06 11:41:54;;;;;;;4.47;2.17;;;;;;;12.75;38.04;98737.42;512630;1100;116530;-61
2021/05/06 11:51:59;;;;;;;1.90;1.80;;;;;;;11.95;39.22;98731.88;512147;1104;117144;-62
2021/05/06 12:02:08;;;;;;;2.93;2.30;;;;;;;12.23;39.25;98732.20;513891;1100;116396;-62
2021/05/06 12:12:21;;;;;;;2.87;2.00;;;;;;;12.18;39.37;98706.30;512914;1100;116440;-60
2021/05/06 12:22:28;;;;;;;2.80;1.90;;;;;;;12.10;38.77;98704.30;511848;1098;117421;-61
2021/05/06 12:32:34;;;;;;;2.03;1.80;;;;;;;12.47;37.74;98693.27;512793;1100;115855;-61
2021/05/06 12:42:40;;;;;;;1.77;1.67;;;;;;;13.10;37.19;98699.26;513154;1100;116007;-62
2021/05/06 12:52:46;;;;;;;2.53;2.00;;;;;;;12.84;37.61;98683.12;512226;1104;183620;-61
2021/05/06 13:03:00;;;;;;;2.80;2.07;;;;;;;12.83;36.88;98670.92;505963;1099;10001083;-61
2021/05/06 13:13:06;;;;;;;1.60;1.50;;;;;;;12.89;36.76;98650.13;511660;1104;116444;-62
2021/05/06 13:23:13;;;;;;;2.63;1.70;;;;;;;12.99;35.54;98638.77;512644;1104;115742;-60
2021/05/06 13:33:20;;;;;;;2.27;1.93;;;;;;;13.14;34.85;98636.53;512003;1104;116062;-61
2021/05/06 13:43:34;;;;;;;2.57;1.97;;;;;;;13.50;34.05;98638.64;511440;1104;115720;-61
2021/05/06 13:53:40;;;;;;;3.33;1.63;;;;;;;13.49;34.11;98627.25;515338;1100;115397;-62
2021/05/06 14:03:45;;;;;;;4.97;3.30;;;;;;;13.08;34.69;98624.75;512525;1099;118380;-60
2021/05/06 14:13:50;;;;;;;2.65;2.10;;;;;;;12.58;35.29;98621.23;512189;1104;116193;-64
2021/05/06 14:23:54;;;;;;;4.47;2.30;;;;;;;12.85;35.14;98616.28;512560;1099;117439;-63
2021/05/06 14:33:58;;;;;;;2.45;1.70;;;;;;;12.53;35.22;98646.30;512227;1104;115489;-64
2021/05/06 14:44:03;;;;;;;3.13;1.60;;;;;;;10.92;41.42;98714.70;512934;1104;115515;-63
2021/05/06 14:54:21;;;;;;;4.37;2.53;;;;;;;10.57;44.58;98701.72;513706;1100;115980;-63
2021/05/06 15:04:46;;;;;;;6.37;2.33;;;;;;;11.30;43.79;98669.69;513892;1104;116787;-63
2021/05/06 15:14:51;;;;;;;3.53;1.60;;;;;;;11.37;43.00;98651.61;512197;1104;116600;-63
2021/05/06 15:24:55;;;;;;;1.20;1.10;;;;;;;11.05;42.38;98633.09;512128;1104;116912;-62
2021/05/06 15:35:01;;;;;;;1.45;1.15;;;;;;;10.84;42.83;98614.67;512361;1104;115858;-63
2021/05/06 15:45:09;;;;;;;3.93;2.23;;;;;;;10.78;42.97;98602.03;512330;1099;115716;-63
2021/05/06 15:55:15;;;;;;;4.13;2.60;;;;;;;10.65;43.47;98602.20;512168;1104;115642;-64
2021/05/06 16:05:24;;;;;;;5.43;3.90;;;;;;;10.45;43.91;98586.25;513342;1104;116481;-63
2021/05/06 16:15:31;;;;;;;2.20;1.80;;;;;;;10.64;44.10;98579.53;512954;1104;116783;-63
2021/05/06 16:25:43;;;;;;;4.17;1.87;;;;;;;10.54;44.64;98584.67;513089;1104;116157;-63
2021/05/06 16:35:56;;;;;;;5.73;2.73;;;;;;;10.28;49.37;98599.86;512344;1099;116148;-63
2021/05/06 16:46:01;;;;;;;4.67;3.47;;;;;;;10.27;51.24;98595.53;512317;1104;116160;-63
2021/05/06 16:56:09;;;;;;;4.23;2.43;;;;;;;9.56;52.75;98601.84;513807;1100;116082;-63
2021/05/06 17:06:18;;;;;;;8.60;5.00;;;;;;;9.05;54.33;98602.05;512480;1100;115845;-63
2021/05/06 17:16:23;;;;;;;9.17;6.43;;;;;;;8.78;55.36;98610.98;513687;1099;116346;-59
2021/05/06 17:26:27;;;;;;;8.07;5.80;;;;;;;8.66;56.34;98589.14;512018;1100;118258;-59
2021/05/06 17:36:35;;;;;;;4.05;3.65;;;;;;;8.48;57.21;98613.97;512774;1104;115671;-61
2021/05/06 17:46:40;;;;;;;4.00;3.60;;;;;;;8.03;58.02;98602.27;513231;1104;115517;-61
2021/05/06 17:56:45;;;;;;;5.50;4.20;;;;;;;7.64;58.45;98599.66;512823;1100;116263;-60
2021/05/06 18:06:49;;;;;;;3.25;2.95;;;;;;;7.26;58.93;98609.13;511525;1104;115800;-60
2021/05/06 18:16:54;;;;;;;3.60;3.20;;;;;;;7.10;59.80;98614.52;518964;1104;115988;-59
2021/05/06 18:27:05;;;;;;;3.60;2.28;;;;;;;6.88;60.86;98599.42;506610;1104;20002539;-62
2021/05/06 18:37:09;;;;;;;3.30;3.00;;;;;;;6.55;61.86;98603.25;512435;1104;116239;-62
2021/05/06 18:47:15;;;;;;;7.90;6.20;;;;;;;6.19;62.59;98604.63;512617;1104;117109;-62
2021/05/06 18:57:20;;;;;;;7.35;5.90;;;;;;;5.88;62.60;98608.13;512473;1100;116492;-56
2021/05/06 19:07:24;;;;;;;7.65;6.20;;;;;;;5.81;64.02;98622.45;512251;1100;115657;-58
2021/05/06 19:17:29;;;;;;;6.45;4.53;;;;;;;5.88;64.79;98622.91;513904;1104;115964;-58
2021/05/06 19:27:34;;;;;;;5.70;5.00;;;;;;;5.97;64.58;98626.76;512309;1100;116236;-58
2021/05/06 19:37:39;;;;;;;6.80;5.78;;;;;;;6.09;65.30;98626.04;513180;1104;116798;-58
2021/05/06 19:47:44;;;;;;;11.45;8.00;;;;;;;6.36;64.95;98617.44;513415;1100;116310;-57
2021/05/06 19:57:49;;;;;;;42.97;23.93;;;;;;;6.59;64.21;98626.44;511523;1104;116764;-58
2021/05/06 20:07:54;;;;;;;15.23;9.28;;;;;;;6.67;65.40;98622.49;513222;1104;116089;-58
2021/05/06 20:17:59;;;;;;;9.07;6.30;;;;;;;6.62;64.07;98614.13;512359;1104;116162;-57
2021/05/06 20:28:04;;;;;;;9.37;7.77;;;;;;;6.73;64.10;98607.28;511448;1104;116427;-59
2021/05/06 20:38:09;;;;;;;9.78;6.55;;;;;;;6.86;63.89;98590.83;512266;1104;117344;-58
2021/05/06 20:48:19;;;;;;;11.90;7.90;;;;;;;6.97;63.87;98583.14;512562;1100;114902;-58
2021/05/06 20:58:27;;;;;;;10.63;8.87;;;;;;;7.01;63.32;98573.34;511423;1104;116064;-58
2021/05/06 21:08:32;;;;;;;12.73;9.10;;;;;;;6.94;63.46;98562.47;512259;1104;116690;-58
2021/05/06 21:18:37;;;;;;;19.00;10.17;;;;;;;6.82;63.88;98568.50;512152;1104;116412;-58
2021/05/06 21:28:42;;;;;;;15.27;10.57;;;;;;;6.89;64.05;98546.30;512212;1104;115897;-58
2021/05/06 21:38:47;;;;;;;12.50;9.57;;;;;;;6.99;64.05;98543.91;512695;1104;116090;-59
2021/05/06 21:48:52;;;;;;;13.33;8.80;;;;;;;7.06;64.70;98541.72;512296;1104;116499;-61
2021/05/06 21:58:57;;;;;;;37.55;25.15;;;;;;;7.10;64.97;98530.97;513055;1100;117235;-52
2021/05/06 22:09:03;;;;;;;17.13;12.27;;;;;;;7.10;64.09;98512.70;512380;1104;116756;-50
2021/05/06 22:19:08;;;;;;;13.80;9.10;;;;;;;7.07;64.20;98505.08;511606;1104;115269;-51
2021/05/06 22:29:14;;;;;;;15.50;9.97;;;;;;;7.10;63.87;98499.65;512261;1098;115867;-55
2021/05/06 22:39:19;;;;;;;25.93;15.40;;;;;;;7.11;63.78;98490.05;514875;1104;115267;-56
2021/05/06 22:49:23;;;;;;;20.93;13.53;;;;;;;7.08;63.93;98498.07;511281;1104;116392;-54
2021/05/06 22:59:29;;;;;;;16.60;10.73;;;;;;;7.13;64.32;98506.45;512135;1104;116601;-50
2021/05/06 23:09:34;;;;;;;16.07;12.13;;;;;;;7.19;65.27;98495.58;512737;1104;116048;-52
2021/05/06 23:19:39;;;;;;;22.00;15.00;;;;;;;7.14;65.10;98482.01;517730;1104;116988;-59
2021/05/06 23:29:43;;;;;;;21.33;16.93;;;;;;;7.07;64.74;98473.77;512716;1100;116229;-60
2021/05/06 23:39:48;;;;;;;16.93;14.27;;;;;;;7.03;64.67;98474.89;512075;1104;116399;-59
2021/05/06 23:50:06;;;;;;;15.73;12.30;;;;;;;7.00;64.87;98469.88;513148;1099;116062;-58
